Time;durP1;ratioP1;P1;durP2;ratioP2;P2;SDS_P1;SDS_P2;PMS_P1;PMS_P2;Temp;Humidity;BMP_temperature;BMP_pressure;BME280_temperature;BME280_humidity;BME280_pressure;Samples;Min_cycle;Max_cycle;Signal;HPM_P1;HPM_P2
2024/02/13 00:02:04;;;;;;;0.20;0.00;;;;;;;;;;4996077;28;20149;-84
2024/02/13 00:04:43;;;;;;;0.20;0.00;;;;;;;;;;4995113;28;20427;-84
2024/02/13 00:07:13;;;;;;;0.20;0.00;;;;;;;;;;4986229;28;20418;-85
2024/02/13 00:09:50;;;;;;;0.20;0.00;;;;;;;;;;4974152;28;20097;-85
2024/02/13 00:12:24;;;;;;;0.20;0.00;;;;;;;;;;4989105;28;20038;-85
2024/02/13 00:14:51;;;;;;;0.20;0.00;;;;;;;;;;4970011;28;20039;-84
2024/02/13 00:17:28;;;;;;;0.20;0.17;;;;;;;;;;4976042;28;20058;-83
2024/02/13 00:19:55;;;;;;;0.20;0.00;;;;;;;;;;4977908;28;20057;-82
2024/02/13 00:25:19;;;;;;;0.20;0.10;;;;;;;;;;4963007;28;20094;-84
2024/02/13 00:27:46;;;;;;;0.20;0.03;;;;;;;;;;4976480;28;20042;-84
2024/02/13 00:30:19;;;;;;;0.20;0.10;;;;;;;;;;4986644;28;20046;-86
2024/02/13 00:32:45;;;;;;;0.45;0.45;;;;;;;;;;5006584;28;20041;-84
2024/02/13 00:35:13;;;;;;;0.20;0.00;;;;;;;;;;4984214;28;22813;-85
2024/02/13 00:37:39;;;;;;;0.20;0.10;;;;;;;;;;4986472;28;20284;-85
2024/02/13 00:40:37;;;;;;;0.20;0.00;;;;;;;;;;4988473;28;20049;-85
2024/02/13 00:43:18;;;;;;;1.58;0.80;;;;;;;;;;4971267;28;20116;-84
2024/02/13 00:45:47;;;;;;;0.22;0.22;;;;;;;;;;4989500;28;20611;-86
2024/02/13 00:48:13;;;;;;;0.20;0.10;;;;;;;;;;4987253;28;20074;-86
2024/02/13 00:50:44;;;;;;;0.20;0.10;;;;;;;;;;4970922;28;20092;-84
2024/02/13 00:53:10;;;;;;;0.20;0.10;;;;;;;;;;4971629;28;20044;-84
2024/02/13 00:55:58;;;;;;;0.20;0.00;;;;;;;;;;4964262;28;20048;-87
2024/02/13 00:58:27;;;;;;;0.20;0.10;;;;;;;;;;4988333;28;20089;-85
2024/02/13 01:00:55;;;;;;;0.20;0.00;;;;;;;;;;4977540;28;20042;-84
2024/02/13 01:03:21;;;;;;;0.20;0.10;;;;;;;;;;4986926;28;20030;-86
2024/02/13 01:05:48;;;;;;;0.20;0.10;;;;;;;;;;4976307;28;20039;-85
2024/02/13 01:08:15;;;;;;;0.20;0.10;;;;;;;;;;4972324;28;20082;-87
2024/02/13 01:10:44;;;;;;;0.20;0.00;;;;;;;;;;4970267;28;20042;-85
2024/02/13 01:13:23;;;;;;;;;;;;;;;;;;;;;
2024/02/13 01:15:56;;;;;;;0.20;0.10;;;;;;;;;;4985486;28;20049;-86
2024/02/13 01:18:24;;;;;;;0.20;0.10;;;;;;;;;;4981997;28;20039;-83
2024/02/13 01:20:55;;;;;;;0.20;0.00;;;;;;;;;;4987579;28;20080;-85
2024/02/13 01:23:24;;;;;;;0.20;0.10;;;;;;;;;;4973589;28;20245;-86
2024/02/13 01:25:53;;;;;;;0.20;0.00;;;;;;;;;;4969873;28;20046;-86
2024/02/13 01:28:22;;;;;;;0.20;0.10;;;;;;;;;;4968141;28;20454;-85
2024/02/13 01:34:02;;;;;;;0.20;0.00;;;;;;;;;;4972287;28;20049;-85
2024/02/13 01:36:30;;;;;;;0.20;0.10;;;;;;;;;;4988302;28;20031;-85
2024/02/13 01:38:59;;;;;;;0.20;0.00;;;;;;;;;;4986383;28;20392;-85
2024/02/13 01:41:29;;;;;;;0.20;0.10;;;;;;;;;;4981439;28;20043;-83
2024/02/13 01:44:01;;;;;;;0.20;0.10;;;;;;;;;;4975482;28;20145;-86
2024/02/13 01:49:20;;;;;;;0.40;0.40;;;;;;;;;;4986306;28;20092;-87
2024/02/13 01:51:51;;;;;;;0.20;0.10;;;;;;;;;;4984723;28;20043;-86
2024/02/13 01:54:25;;;;;;;0.20;0.00;;;;;;;;;;4972354;28;20065;-86
2024/02/13 01:56:59;;;;;;;0.28;0.25;;;;;;;;;;4970584;28;20039;-85
2024/02/13 01:59:27;;;;;;;0.20;0.00;;;;;;;;;;4989076;28;20038;-87
2024/02/13 02:01:57;;;;;;;0.20;0.10;;;;;;;;;;4983885;28;20053;-86
2024/02/13 02:04:43;;;;;;;0.20;0.10;;;;;;;;;;4978661;28;20094;-86
2024/02/13 02:07:12;;;;;;;0.20;0.10;;;;;;;;;;4975137;28;20042;-86
2024/02/13 02:09:50;;;;;;;0.20;0.10;;;;;;;;;;4977449;28;20042;-84
2024/02/13 02:12:19;;;;;;;0.20;0.10;;;;;;;;;;4973382;28;20046;-85
2024/02/13 02:14:52;;;;;;;0.20;0.00;;;;;;;;;;4977436;28;20471;-87
2024/02/13 02:17:31;;;;;;;0.20;0.03;;;;;;;;;;4974048;28;20573;-88
2024/02/13 02:19:57;;;;;;;0.20;0.00;;;;;;;;;;4973847;28;20140;-88
2024/02/13 02:22:34;;;;;;;0.20;0.10;;;;;;;;;;4973815;28;20175;-86
2024/02/13 02:25:07;;;;;;;0.20;0.00;;;;;;;;;;4993633;28;20065;-88
2024/02/13 02:27:36;;;;;;;0.20;0.10;;;;;;;;;;4976602;28;20042;-85
2024/02/13 02:30:07;;;;;;;0.20;0.20;;;;;;;;;;4971213;28;20046;-83
2024/02/13 02:32:33;;;;;;;0.20;0.08;;;;;;;;;;4976180;28;20614;-86
2024/02/13 02:34:59;;;;;;;0.20;0.10;;;;;;;;;;4971773;28;20272;-85
2024/02/13 02:37:48;;;;;;;0.55;0.38;;;;;;;;;;4989983;28;20077;-88
2024/02/13 02:40:27;;;;;;;0.20;0.00;;;;;;;;;;4982297;28;20069;-87
2024/02/13 02:42:55;;;;;;;0.35;0.28;;;;;;;;;;4986851;28;21535;-87
2024/02/13 02:45:30;;;;;;;0.20;0.00;;;;;;;;;;4985921;28;20113;-86
2024/02/13 02:47:59;;;;;;;0.20;0.10;;;;;;;;;;4986241;28;20031;-87
2024/02/13 02:53:44;;;;;;;0.20;0.00;;;;;;;;;;4978435;28;20502;-87
2024/02/13 02:56:15;;;;;;;0.20;0.00;;;;;;;;;;4988945;28;20185;-86
2024/02/13 02:58:49;;;;;;;0.20;0.00;;;;;;;;;;4974423;28;20133;-86
2024/02/13 03:01:19;;;;;;;0.20;0.00;;;;;;;;;;4988826;28;20039;-86
2024/02/13 03:03:45;;;;;;;0.20;0.10;;;;;;;;;;4970720;28;20030;-88
2024/02/13 03:06:13;;;;;;;0.20;0.10;;;;;;;;;;4974541;28;20027;-87
2024/02/13 03:08:52;;;;;;;;;;;;;;;;;;;;;
2024/02/13 03:11:38;;;;;;;0.20;0.10;;;;;;;;;;4988478;28;20046;-86
2024/02/13 03:14:05;;;;;;;0.20;0.10;;;;;;;;;;5008444;23;20041;-86
2024/02/13 03:16:44;;;;;;;;;;;;;;;;;;;;;
2024/02/13 03:19:14;;;;;;;0.20;0.17;;;;;;;;;;5006553;28;20085;-87
2024/02/13 03:21:56;;;;;;;0.20;0.10;;;;;;;;;;4991231;28;20064;-85
2024/02/13 03:24:24;;;;;;;0.20;0.20;;;;;;;;;;5009605;28;20048;-86
2024/02/13 03:26:55;;;;;;;0.20;0.10;;;;;;;;;;4992850;28;20060;-86
2024/02/13 03:29:21;;;;;;;0.20;0.00;;;;;;;;;;4994536;28;20057;-84
2024/02/13 03:31:50;;;;;;;0.20;0.10;;;;;;;;;;5014576;28;20042;-87
2024/02/13 03:34:16;;;;;;;0.20;0.10;;;;;;;;;;4995359;28;20046;-86
2024/02/13 03:37:02;;;;;;;0.20;0.10;;;;;;;;;;4997894;28;20042;-85
2024/02/13 03:39:33;;;;;;;0.20;0.00;;;;;;;;;;5013416;28;20129;-86
2024/02/13 03:41:59;;;;;;;0.20;0.00;;;;;;;;;;5014655;28;20050;-85
2024/02/13 03:44:26;;;;;;;0.20;0.00;;;;;;;;;;5000199;28;20091;-86
2024/02/13 03:46:55;;;;;;;0.20;0.10;;;;;;;;;;5015078;28;20343;-86
2024/02/13 03:49:34;;;;;;;0.20;0.10;;;;;;;;;;4995259;28;20038;-85
2024/02/13 03:52:00;;;;;;;0.20;0.10;;;;;;;;;;4992846;28;20566;-85
2024/02/13 03:54:29;;;;;;;0.20;0.10;;;;;;;;;;4995143;28;20038;-86
2024/02/13 03:56:56;;;;;;;0.20;0.10;;;;;;;;;;5001979;28;20034;-87
2024/02/13 03:59:24;;;;;;;0.20;0.10;;;;;;;;;;4995710;28;20030;-85
2024/02/13 04:01:53;;;;;;;0.20;0.10;;;;;;;;;;4996200;28;20042;-85
2024/02/13 04:04:27;;;;;;;0.20;0.10;;;;;;;;;;4993811;28;20057;-85
2024/02/13 04:06:55;;;;;;;0.20;0.10;;;;;;;;;;5001065;28;20029;-85
2024/02/13 04:09:27;;;;;;;0.20;0.10;;;;;;;;;;5010788;28;20046;-87
2024/02/13 04:12:12;;;;;;;0.20;0.20;;;;;;;;;;5015228;28;20033;-86
2024/02/13 04:14:38;;;;;;;0.20;0.10;;;;;;;;;;4996103;28;20046;-83
2024/02/13 04:17:04;;;;;;;0.20;0.10;;;;;;;;;;4995925;28;20105;-85
2024/02/13 04:19:32;;;;;;;0.20;0.10;;;;;;;;;;5012691;28;20041;-85
2024/02/13 04:22:13;;;;;;;0.20;0.10;;;;;;;;;;4996692;28;20042;-86
2024/02/13 04:24:39;;;;;;;0.20;0.10;;;;;;;;;;4999145;28;20792;-87
2024/02/13 04:27:05;;;;;;;0.20;0.03;;;;;;;;;;4995336;28;20042;-85
2024/02/13 04:29:44;;;;;;;0.20;0.10;;;;;;;;;;5013386;28;20038;-85
2024/02/13 04:32:13;;;;;;;0.20;0.10;;;;;;;;;;4996764;28;20041;-85
2024/02/13 04:34:41;;;;;;;0.20;0.10;;;;;;;;;;4996045;28;20091;-83
2024/02/13 04:37:09;;;;;;;0.20;0.10;;;;;;;;;;5008151;28;20046;-85
2024/02/13 04:39:35;;;;;;;0.20;0.10;;;;;;;;;;4991234;28;20065;-87
2024/02/13 04:42:10;;;;;;;0.20;0.10;;;;;;;;;;4991155;28;20089;-85
2024/02/13 04:44:43;;;;;;;0.20;0.00;;;;;;;;;;4994972;28;20034;-86
2024/02/13 04:47:15;;;;;;;0.20;0.10;;;;;;;;;;5011159;28;20060;-85
2024/02/13 04:49:43;;;;;;;0.40;0.20;;;;;;;;;;5012070;28;20046;-85
2024/02/13 04:52:12;;;;;;;0.20;0.10;;;;;;;;;;5015065;28;20052;-86
2024/02/13 04:54:41;;;;;;;0.20;0.10;;;;;;;;;;4994274;28;20483;-85
2024/02/13 04:57:11;;;;;;;0.20;0.08;;;;;;;;;;4988419;28;20050;-85
2024/02/13 04:59:49;;;;;;;0.20;0.20;;;;;;;;;;5009830;28;20398;-86
2024/02/13 05:02:21;;;;;;;0.20;0.10;;;;;;;;;;4992800;28;20042;-84
2024/02/13 05:07:35;;;;;;;0.20;0.10;;;;;;;;;;5006890;28;20042;-86
2024/02/13 05:10:02;;;;;;;0.20;0.00;;;;;;;;;;4989964;28;20375;-86
2024/02/13 05:12:33;;;;;;;0.20;0.10;;;;;;;;;;4991553;28;20757;-85
2024/02/13 05:15:10;;;;;;;0.20;0.03;;;;;;;;;;4984221;28;20042;-87
2024/02/13 05:17:56;;;;;;;0.20;0.10;;;;;;;;;;4993367;28;20065;-88
2024/02/13 05:20:35;;;;;;;0.20;0.10;;;;;;;;;;4984470;28;20045;-88
2024/02/13 05:23:16;;;;;;;0.20;0.10;;;;;;;;;;4988530;28;20458;-87
2024/02/13 05:25:45;;;;;;;0.20;0.00;;;;;;;;;;4988294;28;20060;-87
2024/02/13 05:28:11;;;;;;;0.20;0.10;;;;;;;;;;5007001;28;20030;-87
2024/02/13 05:30:40;;;;;;;0.20;0.10;;;;;;;;;;5005218;28;20049;-89
2024/02/13 05:33:42;;;;;;;0.20;0.03;;;;;;;;;;5003326;28;20046;-87
2024/02/13 05:36:11;;;;;;;0.20;0.05;;;;;;;;;;4986927;28;20059;-86
2024/02/13 05:38:45;;;;;;;0.20;0.10;;;;;;;;;;5006780;28;20034;-84
2024/02/13 05:41:11;;;;;;;0.20;0.10;;;;;;;;;;4988543;28;20080;-85
2024/02/13 05:44:02;;;;;;;0.20;0.10;;;;;;;;;;5008099;28;21995;-86
2024/02/13 05:46:34;;;;;;;0.20;0.10;;;;;;;;;;4990024;28;20046;-88
2024/02/13 05:49:03;;;;;;;0.20;0.10;;;;;;;;;;4990660;28;20063;-86
2024/02/13 05:51:38;;;;;;;0.22;0.22;;;;;;;;;;4997770;28;20053;-83
2024/02/13 05:57:02;;;;;;;0.20;0.10;;;;;;;;;;5002448;28;20053;-84
2024/02/13 05:59:31;;;;;;;0.20;0.10;;;;;;;;;;5029769;23;21396;-88
2024/02/13 06:01:58;;;;;;;0.50;0.28;;;;;;;;;;4992760;28;20045;-87
2024/02/13 06:04:24;;;;;;;0.30;0.30;;;;;;;;;;5001926;28;20048;-83
2024/02/13 06:06:50;;;;;;;0.20;0.10;;;;;;;;;;4985015;28;20053;-84
2024/02/13 06:09:22;;;;;;;0.20;0.10;;;;;;;;;;4993906;28;20125;-82
2024/02/13 06:11:49;;;;;;;0.20;0.10;;;;;;;;;;4982309;28;20034;-84
2024/02/13 06:14:16;;;;;;;2.67;0.47;;;;;;;;;;4985046;28;20534;-83
2024/02/13 06:16:41;;;;;;;0.20;0.10;;;;;;;;;;4970606;28;20281;-82
2024/02/13 06:19:09;;;;;;;0.20;0.20;;;;;;;;;;4968937;28;20050;-87
2024/02/13 06:21:35;;;;;;;0.20;0.10;;;;;;;;;;4965685;28;20140;-84
2024/02/13 06:24:02;;;;;;;0.20;0.10;;;;;;;;;;4968770;28;20042;-85
2024/02/13 06:26:28;;;;;;;0.20;0.10;;;;;;;;;;4984541;28;20302;-82
2024/02/13 06:28:54;;;;;;;0.20;0.10;;;;;;;;;;4970578;28;20100;-85
2024/02/13 06:31:21;;;;;;;0.20;0.10;;;;;;;;;;4985857;28;20185;-85
2024/02/13 06:33:47;;;;;;;0.20;0.10;;;;;;;;;;4984661;28;20046;-84
2024/02/13 06:36:13;;;;;;;0.20;0.10;;;;;;;;;;4986081;28;20538;-85
2024/02/13 06:38:39;;;;;;;0.65;0.63;;;;;;;;;;4969037;28;20041;-85
2024/02/13 06:41:05;;;;;;;0.20;0.10;;;;;;;;;;4984290;28;20115;-86
2024/02/13 06:43:34;;;;;;;0.20;0.10;;;;;;;;;;4969239;28;20523;-85
2024/02/13 06:46:04;;;;;;;0.20;0.10;;;;;;;;;;4970664;28;20092;-86
2024/02/13 06:48:30;;;;;;;0.22;0.05;;;;;;;;;;4986090;28;20049;-86
2024/02/13 06:50:56;;;;;;;0.20;0.10;;;;;;;;;;4969318;28;20085;-85
2024/02/13 06:53:23;;;;;;;0.20;0.10;;;;;;;;;;4983640;28;20129;-86
2024/02/13 06:55:49;;;;;;;0.20;0.20;;;;;;;;;;4970407;28;20073;-88
2024/02/13 06:58:17;;;;;;;0.20;0.00;;;;;;;;;;4985591;28;20536;-86
2024/02/13 07:00:43;;;;;;;0.25;0.20;;;;;;;;;;4970312;28;20441;-83
2024/02/13 07:03:09;;;;;;;0.20;0.00;;;;;;;;;;4974938;28;20045;-84
2024/02/13 07:05:37;;;;;;;0.52;0.38;;;;;;;;;;4987532;28;20037;-85
2024/02/13 07:08:03;;;;;;;0.20;0.20;;;;;;;;;;4977136;28;20041;-84
2024/02/13 07:10:29;;;;;;;0.30;0.22;;;;;;;;;;4981640;28;20399;-84
2024/02/13 07:12:58;;;;;;;0.20;0.20;;;;;;;;;;4986672;28;20042;-87
2024/02/13 07:15:24;;;;;;;0.20;0.15;;;;;;;;;;4985824;28;20053;-87
2024/02/13 07:17:51;;;;;;;0.20;0.10;;;;;;;;;;4971412;28;20069;-85
2024/02/13 07:20:17;;;;;;;0.95;0.30;;;;;;;;;;4983588;28;20038;-88
2024/02/13 07:22:43;;;;;;;0.20;0.10;;;;;;;;;;4979097;28;20056;-85
2024/02/13 07:25:09;;;;;;;0.20;0.10;;;;;;;;;;4979387;28;20038;-85
2024/02/13 07:27:39;;;;;;;0.20;0.10;;;;;;;;;;4974212;28;20042;-85
2024/02/13 07:30:11;;;;;;;0.20;0.10;;;;;;;;;;4976198;28;20038;-86
2024/02/13 07:32:39;;;;;;;0.20;0.10;;;;;;;;;;4981076;28;20065;-85
2024/02/13 07:35:05;;;;;;;0.20;0.10;;;;;;;;;;4976977;28;20039;-85
2024/02/13 07:37:31;;;;;;;0.57;0.38;;;;;;;;;;4989612;28;20046;-85
2024/02/13 07:39:59;;;;;;;0.20;0.10;;;;;;;;;;4974344;28;20506;-87
2024/02/13 07:42:27;;;;;;;0.20;0.10;;;;;;;;;;4979982;28;20108;-85
2024/02/13 07:44:53;;;;;;;0.20;0.10;;;;;;;;;;4983996;28;20518;-83
2024/02/13 07:47:21;;;;;;;0.20;0.10;;;;;;;;;;4974923;28;20145;-86
2024/02/13 07:49:48;;;;;;;0.22;0.17;;;;;;;;;;4987630;28;20511;-85
2024/02/13 07:52:17;;;;;;;0.20;0.00;;;;;;;;;;4979513;28;20042;-83
2024/02/13 07:54:44;;;;;;;0.20;0.20;;;;;;;;;;4974354;28;20061;-85
2024/02/13 07:57:11;;;;;;;0.28;0.25;;;;;;;;;;4981677;28;20042;-87
2024/02/13 07:59:37;;;;;;;0.20;0.20;;;;;;;;;;4982415;28;20037;-85
2024/02/13 08:02:03;;;;;;;0.20;0.08;;;;;;;;;;4978700;28;20072;-87
2024/02/13 08:04:31;;;;;;;0.20;0.20;;;;;;;;;;4968235;28;20072;-87
2024/02/13 08:07:00;;;;;;;0.20;0.10;;;;;;;;;;4973742;28;20030;-85
2024/02/13 08:09:26;;;;;;;0.20;0.03;;;;;;;;;;4969378;28;20103;-84
2024/02/13 08:11:53;;;;;;;0.20;0.10;;;;;;;;;;4971009;28;20798;-87
2024/02/13 08:14:19;;;;;;;0.20;0.10;;;;;;;;;;4975106;28;20124;-86
2024/02/13 08:16:45;;;;;;;0.20;0.10;;;;;;;;;;4974468;28;20188;-83
2024/02/13 08:19:11;;;;;;;0.30;0.20;;;;;;;;;;4977827;28;20080;-85
2024/02/13 08:21:38;;;;;;;0.20;0.10;;;;;;;;;;4974062;28;20041;-88
2024/02/13 08:24:08;;;;;;;0.20;0.10;;;;;;;;;;4986124;28;20435;-85
2024/02/13 08:26:34;;;;;;;0.20;0.17;;;;;;;;;;4983520;28;20125;-87
2024/02/13 08:29:00;;;;;;;0.20;0.10;;;;;;;;;;4990746;28;20048;-84
2024/02/13 08:31:26;;;;;;;0.20;0.10;;;;;;;;;;4986392;28;20050;-84
2024/02/13 08:33:52;;;;;;;0.30;0.30;;;;;;;;;;4991475;28;20415;-86
2024/02/13 08:36:18;;;;;;;0.32;0.22;;;;;;;;;;4979218;28;20053;-84
2024/02/13 08:38:45;;;;;;;0.20;0.10;;;;;;;;;;4991743;28;20274;-85
2024/02/13 08:41:14;;;;;;;0.20;0.10;;;;;;;;;;4987766;28;20127;-87
2024/02/13 08:43:41;;;;;;;0.20;0.10;;;;;;;;;;4970027;28;20049;-85
2024/02/13 08:46:07;;;;;;;0.20;0.20;;;;;;;;;;4976436;28;20444;-84
2024/02/13 08:48:33;;;;;;;0.20;0.10;;;;;;;;;;4972042;28;20037;-84
2024/02/13 08:50:59;;;;;;;0.20;0.10;;;;;;;;;;4979424;28;20037;-85
2024/02/13 08:53:25;;;;;;;0.40;0.40;;;;;;;;;;4966442;28;20059;-85
2024/02/13 08:55:51;;;;;;;0.20;0.10;;;;;;;;;;4973388;28;20521;-85
2024/02/13 08:58:18;;;;;;;0.20;0.10;;;;;;;;;;4985965;28;20782;-86
2024/02/13 09:00:44;;;;;;;0.20;0.03;;;;;;;;;;4982188;28;20403;-86
2024/02/13 09:03:11;;;;;;;0.20;0.03;;;;;;;;;;4987798;28;20237;-85
2024/02/13 09:05:37;;;;;;;0.22;0.22;;;;;;;;;;4969489;28;20113;-86
2024/02/13 09:08:05;;;;;;;0.20;0.10;;;;;;;;;;4975368;28;20069;-84
2024/02/13 09:10:31;;;;;;;0.20;0.00;;;;;;;;;;4972061;28;20112;-85
2024/02/13 09:12:59;;;;;;;0.25;0.22;;;;;;;;;;4969139;28;20042;-85
2024/02/13 09:15:29;;;;;;;0.20;0.10;;;;;;;;;;4968554;28;20137;-86
2024/02/13 09:17:55;;;;;;;0.20;0.00;;;;;;;;;;4975322;28;20429;-85
2024/02/13 09:20:21;;;;;;;0.20;0.10;;;;;;;;;;4972107;28;20042;-86
2024/02/13 09:22:48;;;;;;;0.20;0.10;;;;;;;;;;4985191;28;20038;-85
2024/02/13 09:25:16;;;;;;;0.90;0.75;;;;;;;;;;4975804;28;20078;-87
2024/02/13 09:27:43;;;;;;;0.20;0.10;;;;;;;;;;4971819;28;20403;-84
2024/02/13 09:30:13;;;;;;;0.52;0.52;;;;;;;;;;4982699;28;20048;-85
2024/02/13 09:32:39;;;;;;;0.20;0.10;;;;;;;;;;4982472;28;20042;-85
2024/02/13 09:35:05;;;;;;;0.20;0.05;;;;;;;;;;4971660;28;20041;-83
2024/02/13 09:37:32;;;;;;;0.20;0.10;;;;;;;;;;4978129;28;20053;-86
2024/02/13 09:39:58;;;;;;;0.20;0.20;;;;;;;;;;4971731;28;20038;-87
2024/02/13 09:42:24;;;;;;;0.20;0.10;;;;;;;;;;4975727;28;20049;-86
2024/02/13 09:44:51;;;;;;;0.20;0.05;;;;;;;;;;4980099;28;20038;-84
2024/02/13 09:47:17;;;;;;;0.20;0.10;;;;;;;;;;4989371;28;20037;-85
2024/02/13 09:49:46;;;;;;;0.20;0.10;;;;;;;;;;4974678;28;20050;-85
2024/02/13 09:52:14;;;;;;;0.20;0.05;;;;;;;;;;4972680;28;20045;-86
2024/02/13 09:54:44;;;;;;;0.20;0.10;;;;;;;;;;4970690;28;20065;-83
2024/02/13 09:57:10;;;;;;;0.20;0.10;;;;;;;;;;4973073;28;20044;-84
2024/02/13 09:59:37;;;;;;;0.20;0.10;;;;;;;;;;4969032;28;20055;-84
2024/02/13 10:02:05;;;;;;;0.20;0.05;;;;;;;;;;4980806;28;20038;-84
2024/02/13 10:04:31;;;;;;;0.20;0.15;;;;;;;;;;4973475;28;20042;-85
2024/02/13 10:07:00;;;;;;;0.20;0.00;;;;;;;;;;4971234;28;20042;-83
2024/02/13 10:09:28;;;;;;;0.40;0.32;;;;;;;;;;4983959;28;20046;-85
2024/02/13 10:11:54;;;;;;;0.20;0.10;;;;;;;;;;4967512;28;20046;-85
2024/02/13 10:14:21;;;;;;;0.20;0.10;;;;;;;;;;4983469;28;20101;-84
2024/02/13 10:16:50;;;;;;;0.20;0.10;;;;;;;;;;4970344;28;20038;-84
2024/02/13 10:19:21;;;;;;;0.20;0.10;;;;;;;;;;4986694;28;20117;-85
2024/02/13 10:21:49;;;;;;;0.20;0.10;;;;;;;;;;4973401;28;20557;-86
2024/02/13 10:24:16;;;;;;;0.20;0.13;;;;;;;;;;4975370;28;20042;-85
2024/02/13 10:26:42;;;;;;;0.28;0.22;;;;;;;;;;4977759;28;20116;-86
2024/02/13 10:29:09;;;;;;;0.20;0.10;;;;;;;;;;4981834;28;20527;-84
2024/02/13 10:31:35;;;;;;;0.20;0.10;;;;;;;;;;4978000;28;20045;-85
2024/02/13 10:34:08;;;;;;;0.20;0.10;;;;;;;;;;4983913;28;20041;-86
2024/02/13 10:36:35;;;;;;;0.20;0.10;;;;;;;;;;4972219;28;20092;-85
2024/02/13 10:39:03;;;;;;;0.20;0.10;;;;;;;;;;4984877;28;20423;-86
2024/02/13 10:41:33;;;;;;;0.20;0.10;;;;;;;;;;4971042;28;20411;-87
2024/02/13 10:43:59;;;;;;;0.20;0.10;;;;;;;;;;4982601;28;20105;-84
2024/02/13 10:46:30;;;;;;;0.20;0.10;;;;;;;;;;4974715;28;20053;-85
2024/02/13 10:49:10;;;;;;;0.20;0.10;;;;;;;;;;4973596;28;20045;-85
2024/02/13 10:51:37;;;;;;;0.20;0.00;;;;;;;;;;4972321;28;20449;-84
2024/02/13 10:54:07;;;;;;;0.20;0.10;;;;;;;;;;4975123;28;20048;-86
2024/02/13 10:56:39;;;;;;;0.20;0.20;;;;;;;;;;4963073;28;20043;-86
2024/02/13 10:59:07;;;;;;;0.77;0.45;;;;;;;;;;4967120;28;20062;-86
2024/02/13 11:01:37;;;;;;;0.43;0.30;;;;;;;;;;4970705;28;20077;-86
2024/02/13 11:04:04;;;;;;;0.20;0.10;;;;;;;;;;4971831;28;20140;-87
2024/02/13 11:06:32;;;;;;;0.30;0.17;;;;;;;;;;4974756;28;20037;-85
2024/02/13 11:08:58;;;;;;;0.20;0.10;;;;;;;;;;4974719;28;20100;-85
2024/02/13 11:11:27;;;;;;;0.20;0.05;;;;;;;;;;4976012;28;20529;-84
2024/02/13 11:13:53;;;;;;;0.20;0.10;;;;;;;;;;4975176;28;20052;-83
2024/02/13 11:16:20;;;;;;;0.20;0.00;;;;;;;;;;4975411;28;20046;-85
2024/02/13 11:18:50;;;;;;;0.20;0.00;;;;;;;;;;4970805;28;20081;-85
2024/02/13 11:21:23;;;;;;;0.20;0.10;;;;;;;;;;4968683;28;20045;-87
2024/02/13 11:23:58;;;;;;;0.20;0.10;;;;;;;;;;4973135;28;20145;-86
2024/02/13 11:26:34;;;;;;;0.30;0.20;;;;;;;;;;4969095;28;20056;-84
2024/02/13 11:29:14;;;;;;;0.20;0.03;;;;;;;;;;4974013;28;20037;-83
2024/02/13 11:31:41;;;;;;;0.20;0.10;;;;;;;;;;4973040;28;20041;-85
2024/02/13 11:34:13;;;;;;;0.25;0.25;;;;;;;;;;4985951;28;20073;-84
2024/02/13 11:36:39;;;;;;;0.20;0.10;;;;;;;;;;4969591;28;20038;-84
2024/02/13 11:39:09;;;;;;;0.20;0.10;;;;;;;;;;4989364;28;20104;-85
2024/02/13 11:41:35;;;;;;;0.63;0.52;;;;;;;;;;4986914;28;20105;-85
2024/02/13 11:44:07;;;;;;;0.35;0.20;;;;;;;;;;4973911;28;20040;-84
2024/02/13 11:46:33;;;;;;;0.20;0.10;;;;;;;;;;4973612;28;20088;-85
2024/02/13 11:48:59;;;;;;;0.20;0.20;;;;;;;;;;4972133;28;20547;-84
2024/02/13 11:51:26;;;;;;;0.22;0.20;;;;;;;;;;4972728;28;20046;-85
2024/02/13 11:53:52;;;;;;;0.20;0.10;;;;;;;;;;4967465;28;20510;-87
2024/02/13 11:56:20;;;;;;;0.40;0.38;;;;;;;;;;4984721;28;20146;-83
2024/02/13 11:58:46;;;;;;;0.20;0.10;;;;;;;;;;4972606;28;20033;-83
2024/02/13 12:01:19;;;;;;;0.20;0.10;;;;;;;;;;4975232;23;20155;-83
2024/02/13 12:03:45;;;;;;;;;;;;;;;;;;4954575;28;20399;-83
2024/02/13 12:06:15;;;;;;;0.40;0.32;;;;;;;;;;4956971;28;19917;-85
2024/02/13 12:08:45;;;;;;;0.20;0.10;;;;;;;;;;4944446;28;20062;-84
2024/02/13 12:11:11;;;;;;;0.57;0.57;;;;;;;;;;4955292;28;20045;-84
2024/02/13 12:13:39;;;;;;;0.20;0.10;;;;;;;;;;4949518;28;20098;-86
2024/02/13 12:16:09;;;;;;;0.20;0.10;;;;;;;;;;4957466;28;20093;-83
2024/02/13 12:18:44;;;;;;;0.20;0.10;;;;;;;;;;4940609;28;20042;-84
2024/02/13 12:21:16;;;;;;;0.20;0.10;;;;;;;;;;4967667;28;20047;-86
2024/02/13 12:23:51;;;;;;;0.20;0.10;;;;;;;;;;4961291;28;20125;-87
2024/02/13 12:26:33;;;;;;;0.20;0.10;;;;;;;;;;4938773;28;20038;-86
2024/02/13 12:29:14;;;;;;;0.32;0.15;;;;;;;;;;4934417;28;20105;-86
2024/02/13 12:31:44;;;;;;;0.20;0.10;;;;;;;;;;4953013;28;20409;-87
2024/02/13 12:34:10;;;;;;;1.45;0.45;;;;;;;;;;4950833;28;20035;-86
2024/02/13 12:36:39;;;;;;;0.20;0.00;;;;;;;;;;4957676;28;20407;-86
2024/02/13 12:39:20;;;;;;;0.20;0.10;;;;;;;;;;4956514;28;20415;-85
2024/02/13 12:41:52;;;;;;;0.20;0.20;;;;;;;;;;4955716;28;20050;-86
2024/02/13 12:44:21;;;;;;;0.20;0.10;;;;;;;;;;4935354;28;20077;-85
2024/02/13 12:46:48;;;;;;;0.20;0.10;;;;;;;;;;4935213;28;20573;-84
2024/02/13 12:49:16;;;;;;;0.20;0.00;;;;;;;;;;4944545;28;20057;-84
2024/02/13 12:51:44;;;;;;;0.20;0.10;;;;;;;;;;4942238;28;20561;-85
2024/02/13 12:54:11;;;;;;;0.20;0.10;;;;;;;;;;4933242;28;20046;-87
2024/02/13 12:56:40;;;;;;;0.20;0.10;;;;;;;;;;4940542;28;20047;-84
2024/02/13 12:59:08;;;;;;;0.20;0.00;;;;;;;;;;4935744;28;20041;-83
2024/02/13 13:01:37;;;;;;;0.20;0.00;;;;;;;;;;4950999;28;20082;-85
2024/02/13 13:04:05;;;;;;;0.20;0.20;;;;;;;;;;4932185;28;20116;-85
2024/02/13 13:06:40;;;;;;;0.20;0.10;;;;;;;;;;4955726;28;20047;-83
2024/02/13 13:09:09;;;;;;;0.20;0.00;;;;;;;;;;4938371;28;20078;-84
2024/02/13 13:11:38;;;;;;;0.20;0.03;;;;;;;;;;4953788;28;20035;-88
2024/02/13 13:14:06;;;;;;;0.20;0.00;;;;;;;;;;4952257;28;20049;-86
2024/02/13 13:16:34;;;;;;;0.20;0.10;;;;;;;;;;4929418;28;20069;-84
2024/02/13 13:19:01;;;;;;;0.20;0.10;;;;;;;;;;4942915;28;20972;-86
2024/02/13 13:21:45;;;;;;;0.20;0.10;;;;;;;;;;4948509;28;20073;-86
2024/02/13 13:24:13;;;;;;;0.20;0.03;;;;;;;;;;4953384;28;20114;-85
2024/02/13 13:26:53;;;;;;;0.20;0.00;;;;;;;;;;4957553;28;20062;-85
2024/02/13 13:29:25;;;;;;;;;;;;;;;;;;4956800;28;20042;-84
2024/02/13 13:31:51;;;;;;;0.20;0.00;;;;;;;;;;4959950;28;19924;-86
2024/02/13 13:34:22;;;;;;;0.20;0.00;;;;;;;;;;4936442;28;20043;-85
2024/02/13 13:36:52;;;;;;;0.20;0.10;;;;;;;;;;4949332;28;20046;-86
2024/02/13 13:39:57;;;;;;;0.20;0.00;;;;;;;;;;4939667;28;20043;-85
2024/02/13 13:42:43;;;;;;;0.20;0.10;;;;;;;;;;4949022;28;20051;-84
2024/02/13 13:45:16;;;;;;;0.20;0.10;;;;;;;;;;4939306;28;20051;-84
2024/02/13 13:47:45;;;;;;;0.20;0.08;;;;;;;;;;4928287;28;20046;-83
2024/02/13 13:50:17;;;;;;;0.20;0.10;;;;;;;;;;4973311;28;20042;-83
2024/02/13 13:52:43;;;;;;;0.20;0.10;;;;;;;;;;4941321;28;20042;-86
2024/02/13 13:55:09;;;;;;;1.65;1.55;;;;;;;;;;4955147;28;20313;-85
2024/02/13 13:57:36;;;;;;;0.20;0.03;;;;;;;;;;4965826;28;20242;-85
2024/02/13 14:00:09;;;;;;;0.20;0.00;;;;;;;;;;4954791;28;20047;-85
2024/02/13 14:02:35;;;;;;;0.20;0.00;;;;;;;;;;4955645;28;20407;-85
2024/02/13 14:05:02;;;;;;;0.20;0.00;;;;;;;;;;4957864;28;20082;-84
2024/02/13 14:07:28;;;;;;;0.20;0.00;;;;;;;;;;4936992;28;20062;-83
2024/02/13 14:09:57;;;;;;;0.20;0.00;;;;;;;;;;4954436;28;20047;-84
2024/02/13 14:12:23;;;;;;;0.20;0.00;;;;;;;;;;4958595;28;20219;-84
2024/02/13 14:14:51;;;;;;;0.20;0.00;;;;;;;;;;4949393;28;20130;-85
2024/02/13 14:17:17;;;;;;;0.20;0.10;;;;;;;;;;4931830;28;20042;-86
2024/02/13 14:19:47;;;;;;;0.20;0.00;;;;;;;;;;4946062;28;20043;-85
2024/02/13 14:22:14;;;;;;;0.20;0.00;;;;;;;;;;4951715;28;20530;-84
2024/02/13 14:24:40;;;;;;;0.20;0.08;;;;;;;;;;4943033;28;20093;-84
2024/02/13 14:27:07;;;;;;;0.20;0.03;;;;;;;;;;4937772;28;20030;-83
2024/02/13 14:32:25;;;;;;;0.20;0.10;;;;;;;;;;4963844;28;20066;-84
2024/02/13 14:34:54;;;;;;;0.20;0.00;;;;;;;;;;4958204;28;20062;-86
2024/02/13 14:37:25;;;;;;;0.20;0.10;;;;;;;;;;4973607;28;20063;-87
2024/02/13 14:39:54;;;;;;;0.20;0.00;;;;;;;;;;4941292;28;20333;-84
2024/02/13 14:42:23;;;;;;;0.32;0.28;;;;;;;;;;4934833;28;20514;-85
2024/02/13 14:44:49;;;;;;;0.20;0.08;;;;;;;;;;4955584;28;20045;-86
2024/02/13 14:47:16;;;;;;;0.20;0.10;;;;;;;;;;4973126;28;20089;-85
2024/02/13 14:49:42;;;;;;;0.20;0.00;;;;;;;;;;4932960;28;20495;-84
2024/02/13 14:52:09;;;;;;;0.20;0.10;;;;;;;;;;4954981;28;20058;-83
2024/02/13 14:54:41;;;;;;;0.20;0.00;;;;;;;;;;4955083;28;20034;-88
2024/02/13 14:57:11;;;;;;;0.20;0.10;;;;;;;;;;4926907;28;20055;-84
2024/02/13 14:59:40;;;;;;;0.20;0.10;;;;;;;;;;4951048;28;20073;-82
2024/02/13 15:02:11;;;;;;;0.20;0.10;;;;;;;;;;4936578;28;20038;-86
2024/02/13 15:04:40;;;;;;;0.20;0.00;;;;;;;;;;4959193;28;20122;-84
2024/02/13 15:07:06;;;;;;;0.20;0.00;;;;;;;;;;4969979;28;20439;-83
2024/02/13 15:09:35;;;;;;;0.20;0.00;;;;;;;;;;4948666;28;20778;-85
2024/02/13 15:12:05;;;;;;;0.20;0.10;;;;;;;;;;4951583;28;20031;-86
2024/02/13 15:14:34;;;;;;;0.20;0.10;;;;;;;;;;4952261;28;20380;-83
2024/02/13 15:17:00;;;;;;;0.20;0.00;;;;;;;;;;4960315;28;20054;-83
2024/02/13 15:19:29;;;;;;;0.20;0.10;;;;;;;;;;4954611;28;20096;-85
2024/02/13 15:21:56;;;;;;;0.25;0.10;;;;;;;;;;4952275;28;20400;-84